Time;durP1;ratioP1;P1;durP2;ratioP2;P2;SDS_P1;SDS_P2;PMS_P1;PMS_P2;Temp;Humidity;BMP_temperature;BMP_pressure;BME280_temperature;BME280_humidity;BME280_pressure;Samples;Min_cycle;Max_cycle;Signal;HPM_P1;HPM_P2
2023/12/19 00:01:24;;;;;;;92.22;48.28;;;;;;;3.59;100.00;120131.44;5051508;28;20020;-61
2023/12/19 00:03:49;;;;;;;93.03;52.78;;;;;;;3.60;100.00;119441.53;5050542;28;20044;-61
2023/12/19 00:06:15;;;;;;;95.88;44.25;;;;;;;3.62;100.00;118753.63;5050202;28;20060;-61
2023/12/19 00:08:40;;;;;;;90.35;45.28;;;;;;;3.60;100.00;118058.09;5051644;28;20039;-61
2023/12/19 00:11:06;;;;;;;94.40;52.55;;;;;;;3.58;100.00;117362.66;5050844;28;20041;-61
2023/12/19 00:13:32;;;;;;;102.47;50.72;;;;;;;3.63;100.00;117027.56;5050760;28;20029;-60
2023/12/19 00:15:58;;;;;;;94.13;45.05;;;;;;;3.68;100.00;115999.06;5050086;28;20463;-60
2023/12/19 00:18:23;;;;;;;114.57;51.42;;;;;;;3.63;100.00;115990.47;5051842;28;20021;-60
2023/12/19 00:20:52;;;;;;;125.03;49.88;;;;;;;3.65;100.00;114957.44;5050596;28;20052;-60
2023/12/19 00:23:18;;;;;;;118.50;56.22;;;;;;;3.63;100.00;114262.59;5051750;28;20153;-61
2023/12/19 00:25:43;;;;;;;99.93;46.40;;;;;;;3.72;100.00;113587.53;5050411;28;20447;-61
2023/12/19 00:28:08;;;;;;;96.18;47.28;;;;;;;3.70;100.00;113583.78;5051768;28;20029;-61
2023/12/19 00:30:35;;;;;;;104.93;52.38;;;;;;;3.67;100.00;112887.31;5049787;28;20408;-61
2023/12/19 00:33:00;;;;;;;97.05;47.97;;;;;;;3.74;100.00;112554.88;5051764;28;20033;-60
2023/12/19 00:35:26;;;;;;;112.35;51.80;;;;;;;3.77;100.00;112215.00;5049895;28;20044;-60
2023/12/19 00:37:51;;;;;;;100.25;47.92;;;;;;;3.75;100.00;111520.59;5051174;28;20544;-60
2023/12/19 00:40:17;;;;;;;107.10;50.03;;;;;;;3.78;100.00;111180.75;5050081;28;20043;-60
2023/12/19 00:42:42;;;;;;;98.20;49.58;;;;;;;3.76;100.00;110486.50;5051648;28;20028;-60
2023/12/19 00:45:08;;;;;;;118.95;53.22;;;;;;;3.83;100.00;110152.16;5049668;28;20033;-60
2023/12/19 00:47:33;;;;;;;101.10;51.42;;;;;;;3.80;100.00;110839.06;5051453;28;20029;-60
2023/12/19 00:49:58;;;;;;;128.18;54.03;;;;;;;3.82;100.00;109806.00;5049941;28;20048;-60
2023/12/19 00:52:27;;;;;;;87.70;47.83;;;;;;;3.83;100.00;109461.69;5050903;28;20021;-60
2023/12/19 00:54:52;;;;;;;99.00;50.15;;;;;;;3.84;100.00;108773.09;5049637;28;20137;-60
2023/12/19 00:57:18;;;;;;;101.50;47.08;;;;;;;3.85;100.00;108429.75;5051081;28;20021;-60
2023/12/19 00:59:43;;;;;;;104.57;50.80;;;;;;;3.83;100.00;108426.22;5049770;28;20142;-60
2023/12/19 01:02:09;;;;;;;94.75;51.70;;;;;;;3.83;100.00;108081.13;5051040;28;20028;-62
2023/12/19 01:04:35;;;;;;;118.00;51.97;;;;;;;3.87;100.00;107743.13;5048092;28;20063;-60
2023/12/19 01:07:00;;;;;;;93.63;46.55;;;;;;;3.86;100.00;107396.28;5051226;28;20029;-60
2023/12/19 01:09:26;;;;;;;109.97;53.55;;;;;;;3.83;100.00;107046.88;5049249;28;20439;-60
2023/12/19 01:11:51;;;;;;;107.97;54.42;;;;;;;3.84;100.00;107392.75;5051348;28;20021;-60
2023/12/19 01:14:16;;;;;;;112.13;51.83;;;;;;;3.87;100.00;106708.00;5049621;28;20393;-62
2023/12/19 01:16:42;;;;;;;109.93;50.75;;;;;;;3.88;100.00;106364.78;5050658;28;20029;-62
2023/12/19 01:19:09;;;;;;;108.90;50.03;;;;;;;3.88;100.00;106019.84;5049384;28;20068;-62
2023/12/19 01:21:36;;;;;;;107.85;49.28;;;;;;;3.89;100.00;106022.44;5050571;28;20025;-62
2023/12/19 01:24:02;;;;;;;97.15;51.83;;;;;;;3.92;100.00;105681.81;5048775;28;20460;-61
2023/12/19 01:26:27;;;;;;;99.35;51.00;;;;;;;3.92;100.00;105336.91;5050629;28;20098;-62
2023/12/19 01:28:52;;;;;;;100.93;50.25;;;;;;;3.91;100.00;105680.13;5049234;28;20415;-61
2023/12/19 01:31:18;;;;;;;107.70;49.80;;;;;;;3.88;100.00;105674.91;5049901;28;20032;-61
2023/12/19 01:33:43;;;;;;;110.97;56.30;;;;;;;3.91;100.00;105335.22;5050666;28;20028;-61
2023/12/19 01:36:08;;;;;;;107.68;50.70;;;;;;;3.92;100.00;104992.03;5049185;28;20492;-61
2023/12/19 01:38:34;;;;;;;106.20;49.28;;;;;;;3.93;100.00;104648.88;5050569;28;20021;-62
2023/12/19 01:40:59;;;;;;;102.90;52.55;;;;;;;3.95;100.00;104307.47;5048831;28;20052;-61
2023/12/19 01:43:26;;;;;;;96.85;50.20;;;;;;;3.95;100.00;104307.47;5050546;28;20073;-61
2023/12/19 01:45:51;;;;;;;103.00;48.90;;;;;;;3.96;100.00;104309.19;5048574;28;20060;-62
2023/12/19 01:48:18;;;;;;;98.68;50.75;;;;;;;3.94;100.00;104305.75;5050681;28;20395;-61
2023/12/19 01:50:44;;;;;;;110.93;50.15;;;;;;;3.96;100.00;103964.38;5048974;28;20087;-61
2023/12/19 01:53:10;;;;;;;101.20;49.72;;;;;;;3.99;100.00;103624.66;5050069;28;20554;-61
2023/12/19 01:55:37;;;;;;;99.32;50.70;;;;;;;3.99;100.00;103623.81;5048532;28;20047;-61
2023/12/19 01:58:03;;;;;;;100.97;48.28;;;;;;;3.96;100.00;103619.56;5050546;28;20337;-61
2023/12/19 02:00:30;;;;;;;105.32;52.28;;;;;;;3.98;100.00;103622.97;5048253;28;20044;-61
2023/12/19 02:02:55;;;;;;;94.97;48.55;;;;;;;3.96;100.00;103619.56;5029844;28;20025;-61
2023/12/19 02:05:21;;;;;;;94.90;53.08;;;;;;;3.99;100.00;103623.81;5028275;28;20060;-61
2023/12/19 02:07:47;;;;;;;115.63;54.05;;;;;;;4.00;100.00;103280.72;5030046;28;20021;-61
2023/12/19 02:10:13;;;;;;;98.93;49.65;;;;;;;4.00;100.00;103281.56;5028890;28;20049;-61
2023/12/19 02:12:40;;;;;;;100.45;47.05;;;;;;;4.00;100.00;102936.81;5030326;28;20468;-61
2023/12/19 02:15:06;;;;;;;108.38;56.05;;;;;;;3.97;100.00;103277.34;5028463;28;20103;-61
2023/12/19 02:17:32;;;;;;;121.70;50.90;;;;;;;4.00;100.00;102936.81;5040558;28;20104;-61
2023/12/19 02:19:59;;;;;;;105.15;49.50;;;;;;;4.00;100.00;102592.06;5048597;28;20151;-61
2023/12/19 02:22:25;;;;;;;114.68;49.33;;;;;;;3.98;100.00;102588.75;5049433;28;20025;-61
2023/12/19 02:24:50;;;;;;;104.13;52.72;;;;;;;4.00;100.00;101902.69;5048622;28;20396;-61
2023/12/19 02:27:22;;;;;;;110.00;50.15;;;;;;;4.03;100.00;101907.72;5050060;28;20033;-61
2023/12/19 02:29:47;;;;;;;97.57;49.72;;;;;;;4.01;100.00;101559.72;5048022;28;20048;-61
2023/12/19 02:32:12;;;;;;;104.85;49.35;;;;;;;4.02;100.00;101561.41;5049933;28;20029;-61
2023/12/19 02:34:38;;;;;;;107.55;45.25;;;;;;;4.06;100.00;100878.78;5048487;28;20045;-61
2023/12/19 02:37:03;;;;;;;103.78;48.30;;;;;;;4.03;100.00;100873.84;5049487;28;20037;-61
2023/12/19 02:39:29;;;;;;;87.25;46.53;;;;;;;4.06;100.00;100877.97;5048382;28;20041;-61
2023/12/19 02:41:54;;;;;;;94.10;46.70;;;;;;;4.06;100.00;100878.78;5050181;28;20083;-61
2023/12/19 02:44:19;;;;;;;86.78;45.83;;;;;;;4.06;100.00;100878.78;5047691;28;20037;-61
2023/12/19 02:46:45;;;;;;;80.35;42.03;;;;;;;4.07;100.00;100535.03;5049898;28;20021;-61
2023/12/19 02:49:10;;;;;;;83.43;38.70;;;;;;;4.09;100.00;100539.13;5048318;28;20041;-60
2023/12/19 02:51:35;;;;;;;90.50;44.83;;;;;;;4.10;100.00;100196.19;5049333;28;20032;-61
2023/12/19 02:54:01;;;;;;;68.88;38.20;;;;;;;4.05;100.00;100532.56;5048548;28;20036;-61
2023/12/19 02:56:28;;;;;;;77.57;40.78;;;;;;;4.09;100.00;100194.56;5049636;28;20047;-60
2023/12/19 02:58:53;;;;;;;71.53;38.03;;;;;;;4.11;100.00;100197.84;5047953;28;20488;-60
2023/12/19 03:01:19;;;;;;;80.10;39.90;;;;;;;4.12;100.00;100199.47;5049405;28;20021;-60
2023/12/19 03:03:44;;;;;;;71.55;38.75;;;;;;;4.11;100.00;100197.84;5049810;28;20380;-60
2023/12/19 03:06:13;;;;;;;69.90;36.85;;;;;;;4.09;100.00;100539.13;5047563;28;20052;-60
2023/12/19 03:08:38;;;;;;;68.72;39.22;;;;;;;4.15;100.00;100202.72;5049596;28;20066;-60
2023/12/19 03:11:04;;;;;;;73.50;37.80;;;;;;;4.13;100.00;99856.53;5048269;28;20128;-60
2023/12/19 03:13:29;;;;;;;64.90;35.00;;;;;;;4.17;100.00;99517.69;5048964;28;20479;-60
2023/12/19 03:15:55;;;;;;;60.92;35.42;;;;;;;4.16;100.00;99860.63;5050670;28;20057;-60
2023/12/19 03:18:24;;;;;;;66.55;36.45;;;;;;;4.18;100.00;99518.50;5052803;28;20128;-60
2023/12/19 03:20:51;;;;;;;63.55;37.90;;;;;;;4.19;100.00;99520.13;5051367;28;20049;-60
2023/12/19 03:23:18;;;;;;;49.83;28.35;;;;;;;4.16;100.00;99859.78;5052912;28;20539;-61
2023/12/19 03:25:44;;;;;;;58.38;31.02;;;;;;;4.13;100.00;99856.53;5051482;28;20120;-61
2023/12/19 03:28:09;;;;;;;53.67;30.08;;;;;;;4.14;100.00;100201.94;5052559;28;20116;-61
2023/12/19 03:30:34;;;;;;;54.00;32.28;;;;;;;4.15;100.00;100202.72;5051308;28;20527;-61
2023/12/19 03:33:00;;;;;;;52.55;29.05;;;;;;;4.17;100.00;100206.03;5053110;28;20028;-60
2023/12/19 03:35:25;;;;;;;58.55;31.35;;;;;;;4.18;100.00;99863.88;5051073;28;20546;-61
2023/12/19 03:37:51;;;;;;;58.55;31.67;;;;;;;4.07;100.00;99846.72;5052761;28;20099;-60
2023/12/19 03:40:16;;;;;;;67.25;35.78;;;;;;;4.24;100.00;99872.88;5051521;28;20039;-61
2023/12/19 03:42:42;;;;;;;65.90;34.47;;;;;;;4.23;100.00;99872.06;5052525;28;20024;-60
2023/12/19 03:45:08;;;;;;;61.10;33.15;;;;;;;4.24;100.00;99872.88;5050851;28;20041;-60
2023/12/19 03:47:34;;;;;;;67.97;35.40;;;;;;;4.25;100.00;99875.31;5052280;28;20518;-61
2023/12/19 03:49:59;;;;;;;71.75;37.08;;;;;;;4.25;100.00;99874.50;5051370;28;20065;-60
2023/12/19 03:52:24;;;;;;;69.45;36.63;;;;;;;4.24;100.00;99873.69;5051933;28;20337;-62
2023/12/19 03:54:50;;;;;;;69.07;33.67;;;;;;;4.28;100.00;99534.78;5051226;28;20033;-61
2023/12/19 03:57:16;;;;;;;65.68;36.17;;;;;;;4.22;100.00;99525.00;5052321;28;20417;-62
2023/12/19 03:59:45;;;;;;;68.82;35.47;;;;;;;4.29;100.00;99536.41;5050388;28;20041;-62
2023/12/19 04:02:10;;;;;;;69.78;36.88;;;;;;;4.29;100.00;99537.22;5052733;28;20540;-61
2023/12/19 04:04:36;;;;;;;69.55;36.60;;;;;;;4.30;100.00;99538.03;5050778;28;20036;-61
2023/12/19 04:07:01;;;;;;;65.60;34.78;;;;;;;4.29;100.00;99191.78;5051850;28;20126;-61
2023/12/19 04:09:27;;;;;;;78.82;38.90;;;;;;;4.32;100.00;98852.09;5050510;28;20033;-60
2023/12/19 04:11:52;;;;;;;67.80;37.78;;;;;;;4.36;100.00;98513.94;5052039;28;20029;-61
2023/12/19 04:14:18;;;;;;;68.28;35.20;;;;;;;4.28;100.00;98501.88;5050027;28;20036;-60
2023/12/19 04:16:43;;;;;;;78.05;38.45;;;;;;;4.36;100.00;98168.63;5052362;28;20021;-60
2023/12/19 04:19:09;;;;;;;71.88;39.20;;;;;;;4.37;100.00;97826.47;5050742;28;20353;-60
2023/12/19 04:21:36;;;;;;;76.28;39.33;;;;;;;4.39;100.00;97485.16;5051385;28;20038;-60
2023/12/19 04:24:02;;;;;;;79.38;38.90;;;;;;;4.43;100.00;96802.56;5050822;28;20384;-60
2023/12/19 04:26:28;;;;;;;81.65;39.17;;;;;;;4.45;100.00;96805.72;5050864;28;20595;-60
2023/12/19 04:28:53;;;;;;;71.80;39.05;;;;;;;4.45;100.00;96461.25;5050038;28;20033;-60
2023/12/19 04:31:18;;;;;;;85.30;42.80;;;;;;;4.47;100.00;96118.41;5051664;28;20021;-61
2023/12/19 04:33:44;;;;;;;83.13;38.90;;;;;;;4.48;100.00;95775.56;5051858;28;20025;-61
2023/12/19 04:36:09;;;;;;;69.78;38.13;;;;;;;4.49;100.00;95777.13;5049615;28;20044;-61
2023/12/19 04:38:35;;;;;;;69.38;37.70;;;;;;;4.48;100.00;95431.94;5051721;28;20104;-61
2023/12/19 04:41:01;;;;;;;82.63;41.42;;;;;;;4.48;100.00;95775.56;5050044;28;20531;-61
2023/12/19 04:43:26;;;;;;;80.43;40.47;;;;;;;4.49;100.00;95088.38;5051003;28;20056;-61
2023/12/19 04:45:52;;;;;;;86.05;41.45;;;;;;;4.44;100.00;95081.41;5049925;28;20060;-62
2023/12/19 04:48:17;;;;;;;83.32;41.88;;;;;;;4.51;100.00;94747.13;5051386;28;20044;-69
2023/12/19 04:50:42;;;;;;;86.20;42.47;;;;;;;4.52;100.00;94748.69;5049855;28;20159;-61
2023/12/19 04:53:08;;;;;;;79.05;37.05;;;;;;;4.54;100.00;94408.22;5051244;28;20060;-61
2023/12/19 04:55:34;;;;;;;88.68;39.70;;;;;;;4.54;100.00;94407.44;5049815;28;20052;-61
2023/12/19 04:58:00;;;;;;;88.88;41.40;;;;;;;4.56;100.00;94066.97;5051265;28;20375;-61
2023/12/19 05:00:25;;;;;;;85.60;38.85;;;;;;;4.57;100.00;93723.47;5049405;28;20411;-61
2023/12/19 05:02:53;;;;;;;85.43;41.65;;;;;;;4.58;100.00;93724.97;5045098;28;20032;-60
2023/12/19 05:05:21;;;;;;;74.18;35.90;;;;;;;4.60;100.00;93383.78;5027880;28;20057;-60
2023/12/19 05:07:47;;;;;;;83.57;39.15;;;;;;;4.62;100.00;93386.81;5030990;28;20028;-60
2023/12/19 05:10:12;;;;;;;73.47;38.13;;;;;;;4.61;100.00;93041.03;5041071;28;20045;-61
2023/12/19 05:12:38;;;;;;;73.28;36.83;;;;;;;4.64;100.00;93044.84;5046011;28;20021;-61
2023/12/19 05:15:04;;;;;;;71.88;38.70;;;;;;;4.63;100.00;93044.09;5048559;28;20407;-62
2023/12/19 05:17:29;;;;;;;71.22;36.47;;;;;;;4.62;100.00;92698.34;5050552;28;20067;-61
2023/12/19 05:19:55;;;;;;;70.75;36.10;;;;;;;4.67;100.00;92705.13;5047551;28;20044;-61
2023/12/19 05:22:20;;;;;;;63.78;34.17;;;;;;;4.67;100.00;92705.88;5041325;28;20017;-61
2023/12/19 05:24:46;;;;;;;67.10;35.13;;;;;;;4.59;100.00;92693.78;5037355;28;20041;-61
2023/12/19 05:27:11;;;;;;;58.53;32.80;;;;;;;4.61;100.00;92696.81;5049696;28;20041;-61
2023/12/19 05:29:36;;;;;;;55.80;29.08;;;;;;;4.68;100.00;92363.16;5048505;28;20157;-61
2023/12/19 05:32:02;;;;;;;57.45;28.20;;;;;;;4.69;100.00;92364.69;5050195;28;20158;-58
2023/12/19 05:34:27;;;;;;;57.63;28.48;;;;;;;4.70;100.00;92365.41;5048739;28;20041;-58
2023/12/19 05:36:53;;;;;;;44.70;26.92;;;;;;;4.67;100.00;92361.66;5049696;28;20511;-59
2023/12/19 05:39:18;;;;;;;48.60;25.55;;;;;;;4.67;100.00;92361.66;5048567;28;20075;-58
2023/12/19 05:41:43;;;;;;;47.90;29.00;;;;;;;4.72;100.00;92368.44;5050072;28;20503;-58
2023/12/19 05:44:11;;;;;;;47.88;26.13;;;;;;;4.70;100.00;92366.19;5048880;28;20039;-58
2023/12/19 05:46:37;;;;;;;40.88;24.88;;;;;;;4.71;100.00;92367.69;5050342;28;20392;-58
2023/12/19 05:49:03;;;;;;;44.40;23.00;;;;;;;4.68;100.00;92363.16;5048709;28;20033;-58
2023/12/19 05:51:28;;;;;;;40.85;24.77;;;;;;;4.73;100.00;92025.72;5050344;28;20518;-58
2023/12/19 05:53:54;;;;;;;36.50;22.27;;;;;;;4.76;100.00;92030.22;5049125;28;20075;-58
2023/12/19 05:56:20;;;;;;;37.40;21.95;;;;;;;4.76;100.00;92030.97;5049897;28;20021;-58
2023/12/19 05:58:46;;;;;;;29.95;18.02;;;;;;;4.78;100.00;92032.47;5050388;28;20108;-58
2023/12/19 06:01:12;;;;;;;34.22;22.10;;;;;;;4.77;100.00;92031.69;5048811;28;20114;-58
2023/12/19 06:03:37;;;;;;;35.67;18.58;;;;;;;4.78;100.00;92032.47;5049352;28;20255;-58
2023/12/19 06:06:03;;;;;;;32.97;21.67;;;;;;;4.73;100.00;92025.72;5038342;28;20056;-58
2023/12/19 06:08:29;;;;;;;25.25;19.30;;;;;;;4.76;100.00;92375.22;5038983;28;20091;-58
2023/12/19 06:10:54;;;;;;;29.33;17.10;;;;;;;4.73;100.00;92370.69;5037314;28;20466;-58
2023/12/19 06:13:19;;;;;;;26.45;17.67;;;;;;;4.78;100.00;92377.47;5036849;28;20020;-58
2023/12/19 06:15:45;;;;;;;25.60;16.05;;;;;;;4.72;100.00;92369.19;5036919;28;20102;-58
2023/12/19 06:18:10;;;;;;;29.05;17.73;;;;;;;4.77;100.00;92375.94;5040690;28;20028;-58
2023/12/19 06:20:36;;;;;;;26.90;15.75;;;;;;;4.75;100.00;92717.97;5039958;28;20099;-59
2023/12/19 06:23:01;;;;;;;25.50;17.65;;;;;;;4.79;100.00;92722.53;5039733;28;20052;-58
2023/12/19 06:25:26;;;;;;;22.48;16.00;;;;;;;4.80;100.00;92724.03;5040798;28;20037;-58
2023/12/19 06:27:52;;;;;;;26.65;16.20;;;;;;;4.83;100.00;92384.25;5036268;28;20631;-58
2023/12/19 06:30:17;;;;;;;27.80;18.20;;;;;;;4.82;100.00;92727.03;5038085;28;20219;-58
2023/12/19 06:32:45;;;;;;;24.08;17.20;;;;;;;4.80;100.00;92724.03;5046418;28;20120;-58
2023/12/19 06:35:11;;;;;;;25.58;15.13;;;;;;;4.81;100.00;93070.63;5046199;28;20103;-58
2023/12/19 06:37:36;;;;;;;18.90;14.35;;;;;;;4.83;100.00;92728.56;5048217;28;20041;-58
2023/12/19 06:40:03;;;;;;;21.92;16.20;;;;;;;4.81;100.00;93070.63;5047743;28;20025;-59
2023/12/19 06:42:28;;;;;;;22.98;14.68;;;;;;;4.84;100.00;92730.06;5047614;28;20029;-59
2023/12/19 06:44:53;;;;;;;27.40;16.63;;;;;;;4.82;100.00;92727.81;5045825;28;20083;-58
2023/12/19 06:47:19;;;;;;;31.65;17.67;;;;;;;4.81;100.00;93069.84;5044704;28;20021;-58
2023/12/19 06:49:44;;;;;;;23.85;16.48;;;;;;;4.83;100.00;92729.34;5048736;28;20024;-58
2023/12/19 06:52:10;;;;;;;21.80;15.38;;;;;;;4.85;100.00;92387.25;5034023;28;20025;-58
2023/12/19 06:54:39;;;;;;;24.15;15.77;;;;;;;4.87;100.00;92390.28;5033325;28;20044;-58
2023/12/19 06:57:04;;;;;;;;;;;;;;;4.89;100.00;92048.94;5051898;28;20602;-58
2023/12/19 06:59:32;;;;;;;21.15;15.30;;;;;;;4.87;100.00;92046.72;5053467;28;19995;-58
2023/12/19 07:01:58;;;;;;;23.38;15.75;;;;;;;4.87;100.00;91701.69;5052123;28;20043;-58
2023/12/19 07:04:23;;;;;;;23.70;17.85;;;;;;;4.84;100.00;91352.97;5052538;28;20052;-58
2023/12/19 07:06:48;;;;;;;25.77;16.65;;;;;;;4.89;100.00;91361.16;5051962;28;20037;-58
2023/12/19 07:09:14;;;;;;;24.48;16.15;;;;;;;4.88;100.00;91015.44;5053218;28;20396;-58
2023/12/19 07:11:40;;;;;;;21.23;13.20;;;;;;;4.92;100.00;90677.13;5051433;28;20095;-58
2023/12/19 07:14:06;;;;;;;24.67;17.10;;;;;;;4.96;100.00;90338.06;5053414;28;20403;-58
2023/12/19 07:16:31;;;;;;;22.42;15.82;;;;;;;5.00;100.00;89999.00;5050514;28;20037;-59
2023/12/19 07:18:56;;;;;;;29.92;18.08;;;;;;;4.99;100.00;89654.13;5052998;28;20033;-58
2023/12/19 07:21:24;;;;;;;27.73;16.88;;;;;;;5.02;100.00;89314.34;5051612;28;20077;-59
2023/12/19 07:23:51;;;;;;;31.73;19.90;;;;;;;5.02;100.00;89314.34;5053540;28;20103;-58
2023/12/19 07:26:26;;;;;;;28.93;18.97;;;;;;;5.04;100.00;89316.53;5051073;28;20041;-58
2023/12/19 07:28:52;;;;;;;34.03;20.58;;;;;;;5.08;100.00;88978.91;5051882;28;20150;-58
2023/12/19 07:31:25;;;;;;;35.42;20.90;;;;;;;5.11;100.00;88637.63;5051269;28;20104;-58
2023/12/19 07:34:04;;;;;;;31.10;21.52;;;;;;;5.12;100.00;88294.94;5051445;28;20021;-58
2023/12/19 07:36:30;;;;;;;40.60;26.08;;;;;;;5.15;100.00;87955.16;5052392;28;20132;-59
2023/12/19 07:38:55;;;;;;;38.72;23.83;;;;;;;5.18;100.00;87615.31;5051619;28;20025;-58
2023/12/19 07:41:22;;;;;;;41.38;23.42;;;;;;;5.14;100.00;87609.63;5052245;28;20677;-59
2023/12/19 07:43:48;;;;;;;44.83;26.80;;;;;;;5.16;100.00;87612.50;5052399;28;20095;-58
2023/12/19 07:46:13;;;;;;;32.95;22.95;;;;;;;5.22;100.00;87621.03;5051047;28;20045;-59
2023/12/19 07:48:39;;;;;;;45.25;28.25;;;;;;;5.18;100.00;87271.97;5052151;28;20025;-59
2023/12/19 07:51:05;;;;;;;38.80;26.88;;;;;;;5.26;100.00;86938.50;5051204;28;20060;-58
2023/12/19 07:53:30;;;;;;;46.38;28.52;;;;;;;5.28;100.00;86941.34;5052488;28;20025;-58
2023/12/19 07:55:59;;;;;;;37.85;25.33;;;;;;;5.30;100.00;86944.19;5050891;28;20543;-59
2023/12/19 07:58:25;;;;;;;41.05;27.35;;;;;;;5.32;100.00;86602.91;5052367;28;20024;-59
2023/12/19 08:00:50;;;;;;;37.78;25.38;;;;;;;5.36;100.00;86608.53;5050468;28;20077;-58
2023/12/19 08:03:16;;;;;;;41.97;24.67;;;;;;;5.37;100.00;86609.94;5051703;28;20029;-58
2023/12/19 08:05:48;;;;;;;41.72;26.48;;;;;;;5.39;100.00;86267.94;5050907;28;20045;-58
2023/12/19 08:08:14;;;;;;;38.63;25.02;;;;;;;5.43;100.00;86272.84;5052478;28;20055;-58
2023/12/19 08:10:39;;;;;;;43.15;30.63;;;;;;;5.45;100.00;86276.34;5050300;28;20041;-59
2023/12/19 08:13:05;;;;;;;42.72;27.88;;;;;;;5.43;100.00;86273.56;5051111;28;20033;-58
2023/12/19 08:15:30;;;;;;;42.38;25.10;;;;;;;5.43;100.00;86616.97;5049069;28;20059;-58
2023/12/19 08:17:55;;;;;;;41.05;26.73;;;;;;;5.47;100.00;86279.16;5051376;28;20024;-58
2023/12/19 08:20:21;;;;;;;37.05;27.15;;;;;;;5.50;100.00;86282.66;5048874;28;20037;-58
2023/12/19 08:22:46;;;;;;;44.55;26.40;;;;;;;5.51;100.00;86284.75;5051883;28;20330;-59
2023/12/19 08:25:11;;;;;;;42.63;29.25;;;;;;;5.50;100.00;86282.66;5049839;28;20057;-59
2023/12/19 08:27:37;;;;;;;47.95;30.48;;;;;;;5.52;100.00;86286.16;5051563;28;20051;-59
2023/12/19 08:30:03;;;;;;;49.70;31.73;;;;;;;5.54;100.00;86288.28;5050730;28;20127;-58
2023/12/19 08:32:29;;;;;;;57.33;32.67;;;;;;;5.54;100.00;85944.13;5051231;28;20032;-58
2023/12/19 08:34:56;;;;;;;62.10;34.78;;;;;;;5.57;100.00;85604.16;5050429;28;20048;-58
2023/12/19 08:37:22;;;;;;;68.68;40.20;;;;;;;5.60;100.00;85264.19;5051541;28;20040;-64
2023/12/19 08:39:54;;;;;;;67.80;34.20;;;;;;;5.56;100.00;84914.56;5049955;28;20116;-59
2023/12/19 08:42:19;;;;;;;77.40;39.15;;;;;;;5.65;100.00;84926.97;5051573;28;20469;-59
2023/12/19 08:44:44;;;;;;;72.40;40.70;;;;;;;5.60;100.00;84576.00;5050164;28;20051;-59
2023/12/19 08:47:10;;;;;;;77.38;42.58;;;;;;;5.61;100.00;84577.38;5051524;28;20025;-59
2023/12/19 08:49:35;;;;;;;71.90;44.72;;;;;;;5.69;100.00;84244.28;5049791;28;20464;-59
2023/12/19 08:52:00;;;;;;;77.28;43.67;;;;;;;5.70;100.00;83901.53;5051653;28;20515;-59
2023/12/19 08:54:26;;;;;;;80.13;45.30;;;;;;;5.71;100.00;83558.84;5048872;28;20033;-58
2023/12/19 08:56:51;;;;;;;76.93;45.08;;;;;;;5.75;100.00;83218.91;5051507;28;20029;-59
2023/12/19 08:59:16;;;;;;;83.57;45.75;;;;;;;5.76;100.00;83220.25;5050118;28;20033;-59
2023/12/19 09:01:42;;;;;;;67.68;45.15;;;;;;;5.80;100.00;82881.59;5051275;28;20558;-59
2023/12/19 09:04:07;;;;;;;70.68;42.03;;;;;;;5.78;100.00;82535.59;5050197;28;20029;-59
2023/12/19 09:06:33;;;;;;;66.18;41.28;;;;;;;5.84;100.00;82198.94;5050870;28;20099;-59
2023/12/19 09:08:58;;;;;;;81.22;43.80;;;;;;;5.84;100.00;82198.94;5049706;28;20029;-58
2023/12/19 09:11:23;;;;;;;77.85;45.25;;;;;;;5.83;100.00;82198.28;5051198;28;20083;-58
2023/12/19 09:13:49;;;;;;;73.25;42.15;;;;;;;5.85;100.00;81856.28;5050826;28;20025;-58
2023/12/19 09:16:15;;;;;;;70.90;42.03;;;;;;;5.86;100.00;81857.63;5049434;28;20040;-59
2023/12/19 09:18:40;;;;;;;91.18;45.55;;;;;;;5.83;100.00;81853.66;5050869;28;20029;-59
2023/12/19 09:21:05;;;;;;;66.43;44.22;;;;;;;5.88;100.00;81516.31;5049543;28;20037;-59
2023/12/19 09:23:31;;;;;;;76.35;41.60;;;;;;;5.90;100.00;81518.28;5050406;28;20104;-58
2023/12/19 09:25:56;;;;;;;73.18;40.03;;;;;;;5.90;100.00;81175.00;5049413;28;20091;-59
2023/12/19 09:28:23;;;;;;;64.18;39.50;;;;;;;5.95;100.00;81181.56;5050588;28;20020;-59
2023/12/19 09:30:49;;;;;;;69.65;42.00;;;;;;;5.95;100.00;80837.63;5049008;28;20127;-58
2023/12/19 09:33:14;;;;;;;61.10;42.00;;;;;;;5.95;100.00;80837.63;5050822;28;20112;-59
2023/12/19 09:35:40;;;;;;;62.55;40.30;;;;;;;5.97;100.00;80840.25;5049036;28;20106;-59
2023/12/19 09:38:06;;;;;;;63.20;38.30;;;;;;;6.00;100.00;80844.19;5050148;28;20047;-58
2023/12/19 09:40:33;;;;;;;64.43;38.08;;;;;;;5.98;100.00;80841.56;5032367;28;20037;-58
2023/12/19 09:42:59;;;;;;;67.53;37.38;;;;;;;5.97;100.00;80840.25;5030559;28;20025;-59
2023/12/19 09:45:24;;;;;;;60.45;35.80;;;;;;;5.97;100.00;80840.25;5041601;28;20523;-58
2023/12/19 09:47:59;;;;;;;55.83;38.03;;;;;;;6.02;100.00;80502.84;5050276;28;20025;-59
2023/12/19 09:50:27;;;;;;;63.63;35.60;;;;;;;6.05;100.00;80162.16;5035895;28;20111;-58
2023/12/19 09:52:59;;;;;;;57.25;35.28;;;;;;;6.06;100.00;80163.47;5030135;28;20468;-58
2023/12/19 09:55:28;;;;;;;48.33;32.22;;;;;;;6.07;100.00;80164.78;5028041;28;20700;-58
2023/12/19 09:57:55;;;;;;;49.15;33.08;;;;;;;6.05;100.00;80161.53;5030370;28;20105;-61
2023/12/19 10:00:22;;;;;;;54.95;36.67;;;;;;;6.09;100.00;80166.72;5028459;28;20041;-59
2023/12/19 10:02:48;;;;;;;55.67;34.83;;;;;;;6.10;100.00;80511.97;5030583;28;20032;-58
2023/12/19 10:05:13;;;;;;;50.75;33.15;;;;;;;6.08;100.00;80854.03;5028869;28;20045;-58
2023/12/19 10:07:39;;;;;;;48.90;30.95;;;;;;;6.06;100.00;81194.75;5029609;28;20078;-58
2023/12/19 10:10:07;;;;;;;43.85;30.90;;;;;;;6.08;100.00;81542.09;5029126;28;20423;-58
2023/12/19 10:12:32;;;;;;;53.22;32.65;;;;;;;6.06;100.00;81882.88;5029948;28;20030;-59
2023/12/19 10:15:25;;;;;;;50.63;31.50;;;;;;;6.05;100.00;82225.63;5028632;28;20072;-59
2023/12/19 10:18:10;;;;;;;36.95;27.20;;;;;;;6.05;100.00;82569.75;5030193;28;20091;-58
2023/12/19 10:20:37;;;;;;;37.42;27.17;;;;;;;6.06;100.00;82571.09;5028640;28;20042;-59
2023/12/19 10:23:04;;;;;;;43.97;30.20;;;;;;;6.07;100.00;82917.25;5030348;28;20028;-59
2023/12/19 10:25:32;;;;;;;43.83;29.58;;;;;;;6.07;100.00;82917.25;5030775;28;20034;-59
2023/12/19 10:28:07;;;;;;;46.45;31.48;;;;;;;6.10;100.00;82920.59;5034139;28;20112;-59
2023/12/19 10:30:33;;;;;;;37.67;27.27;;;;;;;6.09;100.00;83263.47;5032214;28;20521;-58
2023/12/19 10:32:58;;;;;;;35.55;24.15;;;;;;;6.09;100.00;83263.47;5034368;28;20021;-59
2023/12/19 10:35:24;;;;;;;35.28;27.40;;;;;;;6.08;100.00;83606.34;5032547;28;20099;-59
2023/12/19 10:37:49;;;;;;;33.40;25.48;;;;;;;6.09;100.00;83607.69;5033619;28;20426;-58
2023/12/19 10:40:19;;;;;;;36.15;23.58;;;;;;;6.10;100.00;83953.31;5032720;28;20041;-59
2023/12/19 10:42:55;;;;;;;43.03;25.27;;;;;;;6.09;100.00;84296.25;5034042;28;20040;-59
2023/12/19 10:45:21;;;;;;;34.45;25.45;;;;;;;6.09;100.00;84296.25;5030443;28;20037;-59
2023/12/19 10:47:47;;;;;;;29.00;21.58;;;;;;;6.12;100.00;84300.34;5033953;28;20120;-58
2023/12/19 10:50:12;;;;;;;29.35;24.10;;;;;;;6.10;100.00;84641.94;5043875;28;20052;-58
2023/12/19 10:52:40;;;;;;;34.15;23.00;;;;;;;6.09;100.00;84641.25;5053525;28;20028;-58
2023/12/19 10:55:11;;;;;;;29.20;22.90;;;;;;;6.12;100.00;84644.69;5052319;28;20098;-58
2023/12/19 10:57:39;;;;;;;30.42;21.08;;;;;;;6.14;100.00;84647.44;5053665;28;20067;-58
2023/12/19 11:00:11;;;;;;;24.17;19.63;;;;;;;6.09;100.00;84985.63;5051989;28;20048;-58
2023/12/19 11:02:55;;;;;;;31.05;21.48;;;;;;;6.10;100.00;85330.69;5053437;28;20024;-59
2023/12/19 11:05:20;;;;;;;31.25;21.33;;;;;;;6.06;100.00;85669.53;5051845;28;20376;-58
2023/12/19 11:07:49;;;;;;;26.10;17.70;;;;;;;6.09;100.00;85329.28;5052040;28;20112;-59
2023/12/19 11:10:18;;;;;;;28.27;19.45;;;;;;;6.11;100.00;85332.06;5051774;28;20041;-59